Time;durP1;ratioP1;P1;durP2;ratioP2;P2;SDS_P1;SDS_P2;PMS_P1;PMS_P2;Temp;Humidity;BMP_temperature;BMP_pressure;BME280_temperature;BME280_humidity;BME280_pressure;Samples;Min_cycle;Max_cycle;Signal;HPM_P1;HPM_P2
2021/04/25 00:00:12;;;;;;;6.18;3.83;;;11.10;66.10;;;;;;5113212;28;20484;-56
2021/04/25 00:02:38;;;;;;;9.20;4.45;;;11.00;65.80;;;;;;5112913;28;20286;-56
2021/04/25 00:05:06;;;;;;;4.73;4.23;;;10.80;66.20;;;;;;5112564;28;20183;-55
2021/04/25 00:07:31;;;;;;;4.95;3.90;;;10.60;66.10;;;;;;5112480;28;20173;-55
2021/04/25 00:09:57;;;;;;;7.77;4.33;;;10.90;66.80;;;;;;5113767;28;20192;-55
2021/04/25 00:12:23;;;;;;;6.00;4.27;;;11.10;67.90;;;;;;5113567;28;20211;-55
2021/04/25 00:14:48;;;;;;;4.27;3.53;;;11.00;67.60;;;;;;5112992;28;20210;-55
2021/04/25 00:17:14;;;;;;;5.27;3.83;;;10.90;67.60;;;;;;5113320;28;20665;-54
2021/04/25 00:19:40;;;;;;;5.77;3.70;;;10.80;67.10;;;;;;5112840;28;20600;-55
2021/04/25 00:22:05;;;;;;;5.63;3.67;;;11.10;68.10;;;;;;5113276;28;20433;-54
2021/04/25 00:24:31;;;;;;;5.60;4.00;;;10.90;67.70;;;;;;5113212;28;20344;-55
2021/04/25 00:26:57;;;;;;;5.50;4.33;;;10.90;68.00;;;;;;5113592;28;20196;-55
2021/04/25 00:29:22;;;;;;;5.77;4.30;;;10.80;68.40;;;;;;5114287;28;20193;-55
2021/04/25 00:31:48;;;;;;;5.13;4.00;;;10.90;69.20;;;;;;5114013;28;20220;-55
2021/04/25 00:34:14;;;;;;;6.20;4.07;;;10.70;69.80;;;;;;5113170;28;20198;-55
2021/04/25 00:36:40;;;;;;;4.03;3.17;;;10.50;69.80;;;;;;5112920;28;20187;-54
2021/04/25 00:39:06;;;;;;;4.60;3.50;;;10.50;70.70;;;;;;5113388;28;20226;-55
2021/04/25 00:41:32;;;;;;;12.93;3.90;;;10.60;70.50;;;;;;5128119;27;20206;-54
2021/04/25 00:43:57;;;;;;;5.23;3.70;;;10.60;70.30;;;;;;5109245;28;20199;-56
2021/04/25 00:46:23;;;;;;;8.83;4.60;;;10.40;70.00;;;;;;5112531;28;20960;-56
2021/04/25 00:48:51;;;;;;;5.30;3.80;;;10.80;70.20;;;;;;5112723;28;20176;-56
2021/04/25 00:51:21;;;;;;;4.60;3.42;;;10.20;69.90;;;;;;5112414;28;20180;-56
2021/04/25 00:53:46;;;;;;;4.78;3.60;;;10.40;70.60;;;;;;5112049;28;20287;-56
2021/04/25 00:56:14;;;;;;;6.90;4.27;;;10.60;70.50;;;;;;5113028;28;20184;-54
2021/04/25 00:58:41;;;;;;;4.30;3.47;;;10.50;70.30;;;;;;5112329;28;20327;-55
2021/04/25 01:01:06;;;;;;;5.53;4.20;;;10.50;70.50;;;;;;5113222;28;20189;-55
2021/04/25 01:03:32;;;;;;;7.90;4.33;;;10.40;70.70;;;;;;5110819;28;20184;-54
2021/04/25 01:05:57;;;;;;;5.20;3.67;;;10.50;71.50;;;;;;5114546;28;20658;-56
2021/04/25 01:08:23;;;;;;;4.80;3.80;;;10.60;71.70;;;;;;5113755;28;20267;-55
2021/04/25 01:10:49;;;;;;;7.23;3.83;;;10.40;71.30;;;;;;5113760;28;20199;-55
2021/04/25 01:13:14;;;;;;;5.90;3.50;;;10.70;71.60;;;;;;5110386;28;20193;-58
2021/04/25 01:15:40;;;;;;;6.00;4.03;;;10.40;71.60;;;;;;5111219;28;20271;-56
2021/04/25 01:18:06;;;;;;;5.87;4.20;;;10.50;71.30;;;;;;5113288;28;20190;-56
2021/04/25 01:20:31;;;;;;;5.40;3.67;;;10.40;71.40;;;;;;5112454;28;20186;-55
2021/04/25 01:22:57;;;;;;;5.10;4.20;;;10.60;71.90;;;;;;5109988;28;20476;-54
2021/04/25 01:25:24;;;;;;;4.87;3.70;;;10.40;72.40;;;;;;5112666;28;20678;-54
2021/04/25 01:27:50;;;;;;;4.75;3.92;;;10.50;72.80;;;;;;5112866;28;20191;-55
2021/04/25 01:30:21;;;;;;;5.15;3.33;;;10.50;73.30;;;;;;5111281;28;20730;-54
2021/04/25 01:32:47;;;;;;;5.18;3.80;;;10.30;73.30;;;;;;5112602;28;20331;-54
2021/04/25 01:35:16;;;;;;;4.17;3.50;;;10.00;73.90;;;;;;5112544;28;20695;-55
2021/04/25 01:37:43;;;;;;;4.72;4.25;;;9.80;76.50;;;;;;5112637;28;20187;-54
2021/04/25 01:40:10;;;;;;;3.97;3.60;;;9.80;76.50;;;;;;5112458;28;20716;-55
2021/04/25 01:42:36;;;;;;;6.07;3.53;;;10.10;75.80;;;;;;5112839;28;20191;-55
2021/04/25 01:45:02;;;;;;;6.60;4.13;;;10.00;75.30;;;;;;5114099;28;20241;-54
2021/04/25 01:47:28;;;;;;;4.07;3.50;;;10.20;75.30;;;;;;5113049;28;20190;-54
2021/04/25 01:50:00;;;;;;;5.90;4.10;;;10.00;75.80;;;;;;5112040;28;20184;-55
2021/04/25 01:52:25;;;;;;;4.90;3.42;;;10.00;76.50;;;;;;5113633;28;20449;-53
2021/04/25 01:54:51;;;;;;;4.33;3.50;;;9.30;76.60;;;;;;5112069;28;20218;-55
2021/04/25 01:57:17;;;;;;;5.17;4.27;;;9.90;77.40;;;;;;5112441;28;20180;-55
2021/04/25 01:59:42;;;;;;;4.53;3.87;;;9.70;77.90;;;;;;5111922;28;20202;-54
2021/04/25 02:02:08;;;;;;;6.50;4.40;;;9.90;78.20;;;;;;5105729;28;20204;-54
2021/04/25 02:04:34;;;;;;;4.40;3.60;;;9.50;78.10;;;;;;5106866;28;20442;-55
2021/04/25 02:06:59;;;;;;;5.87;4.00;;;9.60;78.90;;;;;;5111775;28;20184;-55
2021/04/25 02:09:25;;;;;;;7.80;4.73;;;9.70;79.30;;;;;;5111206;28;20202;-55
2021/04/25 02:11:50;;;;;;;5.80;4.63;;;9.70;79.60;;;;;;5111076;28;20218;-56
2021/04/25 02:14:16;;;;;;;6.30;4.10;;;9.80;79.20;;;;;;5108870;28;20198;-56
2021/04/25 02:16:42;;;;;;;8.13;3.87;;;9.70;79.20;;;;;;5112797;28;20191;-55
2021/04/25 02:19:07;;;;;;;5.53;4.40;;;9.90;79.70;;;;;;5112689;28;20947;-54
2021/04/25 02:21:33;;;;;;;7.50;4.67;;;9.60;79.40;;;;;;5111500;28;20244;-53
2021/04/25 02:23:59;;;;;;;5.13;4.10;;;9.40;80.20;;;;;;5112019;28;20287;-55
2021/04/25 02:26:24;;;;;;;5.77;4.63;;;9.50;80.60;;;;;;5111808;28;20191;-54
2021/04/25 02:28:51;;;;;;;5.37;4.87;;;9.10;80.50;;;;;;5112020;28;20199;-55
2021/04/25 02:31:17;;;;;;;4.65;3.88;;;9.40;81.40;;;;;;5113282;28;20202;-54
2021/04/25 02:33:43;;;;;;;4.97;4.03;;;9.30;82.10;;;;;;5116126;28;20191;-55
2021/04/25 02:36:09;;;;;;;4.50;3.90;;;9.00;82.90;;;;;;5117551;28;20183;-54
2021/04/25 02:38:35;;;;;;;5.73;4.10;;;9.20;83.20;;;;;;5115907;28;20201;-54
2021/04/25 02:41:01;;;;;;;6.50;4.47;;;9.30;83.00;;;;;;5115988;28;20524;-55
2021/04/25 02:43:27;;;;;;;5.65;4.85;;;9.40;83.00;;;;;;5110385;28;20544;-54
2021/04/25 02:45:53;;;;;;;7.97;4.80;;;9.00;83.00;;;;;;5114672;28;20626;-55
2021/04/25 02:48:19;;;;;;;10.20;4.38;;;8.90;83.30;;;;;;5116075;28;20483;-55
2021/04/25 02:50:45;;;;;;;4.40;4.00;;;9.00;84.20;;;;;;5115735;28;20643;-54
2021/04/25 02:53:12;;;;;;;7.93;4.60;;;8.90;83.60;;;;;;5115441;28;20203;-54
2021/04/25 02:55:38;;;;;;;5.45;4.30;;;9.00;84.10;;;;;;5115968;28;20278;-56
2021/04/25 02:58:05;;;;;;;6.40;4.65;;;8.90;84.10;;;;;;5115758;28;20207;-56
2021/04/25 03:00:31;;;;;;;6.05;3.90;;;9.10;84.20;;;;;;5115111;28;20175;-55
2021/04/25 03:02:57;;;;;;;6.93;4.50;;;8.90;84.20;;;;;;5115109;28;20710;-54
2021/04/25 03:05:24;;;;;;;7.10;4.50;;;8.90;84.90;;;;;;5115549;28;20260;-55
2021/04/25 03:07:50;;;;;;;4.88;4.10;;;8.80;85.20;;;;;;5116592;28;20201;-54
2021/04/25 03:10:17;;;;;;;6.30;4.97;;;8.80;86.30;;;;;;5116689;28;20250;-54
2021/04/25 03:12:43;;;;;;;5.25;3.88;;;8.90;86.10;;;;;;5105059;28;21020;-56
2021/04/25 03:15:11;;;;;;;5.63;4.15;;;9.00;86.00;;;;;;5116133;28;20200;-56
2021/04/25 03:17:37;;;;;;;5.72;4.57;;;8.70;85.60;;;;;;5114943;28;20214;-55
2021/04/25 03:20:09;;;;;;;5.88;4.55;;;8.60;86.10;;;;;;5115712;28;20175;-55
2021/04/25 03:22:34;;;;;;;5.57;4.57;;;8.70;87.00;;;;;;5107430;28;20210;-55
2021/04/25 03:25:00;;;;;;;6.00;4.30;;;8.50;86.90;;;;;;5114742;28;20184;-54
2021/04/25 03:27:26;;;;;;;3.97;3.63;;;8.50;87.50;;;;;;5114471;28;20440;-54
2021/04/25 03:29:52;;;;;;;9.10;4.50;;;8.80;88.60;;;;;;5114907;28;20433;-54
2021/04/25 03:32:18;;;;;;;5.37;4.30;;;8.60;88.90;;;;;;5114378;28;20218;-54
2021/04/25 03:34:44;;;;;;;6.03;4.50;;;8.80;89.70;;;;;;5114892;28;20349;-55
2021/04/25 03:37:10;;;;;;;7.07;5.00;;;8.80;90.10;;;;;;5114295;28;20437;-55
2021/04/25 03:39:36;;;;;;;8.37;4.23;;;8.80;90.20;;;;;;5114283;28;20183;-55
2021/04/25 03:42:02;;;;;;;6.03;4.60;;;8.80;90.10;;;;;;5114345;28;20819;-56
2021/04/25 03:44:27;;;;;;;5.20;4.70;;;8.30;89.60;;;;;;5113519;28;20191;-55
2021/04/25 03:46:53;;;;;;;5.57;4.67;;;8.10;90.20;;;;;;5114279;28;20447;-54
2021/04/25 03:49:21;;;;;;;7.00;4.33;;;8.20;90.80;;;;;;5115246;28;20171;-56
2021/04/25 03:51:48;;;;;;;5.43;4.32;;;8.20;91.30;;;;;;5115467;28;20208;-55
2021/04/25 03:54:14;;;;;;;4.90;4.40;;;8.10;91.40;;;;;;5115022;28;20212;-56
2021/04/25 03:56:41;;;;;;;6.80;4.78;;;8.20;92.10;;;;;;5113913;28;20179;-55
2021/04/25 03:59:06;;;;;;;6.47;4.88;;;7.90;92.40;;;;;;5113362;28;20558;-55
2021/04/25 04:01:32;;;;;;;6.87;5.00;;;7.70;92.60;;;;;;5114357;28;20204;-56
2021/04/25 04:03:57;;;;;;;6.60;4.53;;;7.80;93.10;;;;;;5113688;28;20194;-56
2021/04/25 04:06:23;;;;;;;5.67;5.07;;;8.00;92.90;;;;;;5113926;28;20176;-56
2021/04/25 04:08:49;;;;;;;5.10;4.33;;;8.00;93.10;;;;;;5114146;28;20176;-55
2021/04/25 04:11:14;;;;;;;7.93;5.27;;;7.70;93.30;;;;;;5113035;28;20676;-55
2021/04/25 04:13:40;;;;;;;4.73;4.23;;;7.70;93.60;;;;;;5115586;28;20236;-54
2021/04/25 04:16:06;;;;;;;6.27;4.30;;;7.40;93.50;;;;;;5114314;28;20219;-55
2021/04/25 04:18:32;;;;;;;5.47;4.90;;;7.80;93.60;;;;;;5112131;28;20179;-54
2021/04/25 04:20:57;;;;;;;6.77;4.47;;;7.60;93.90;;;;;;5114217;28;20168;-56
2021/04/25 04:23:23;;;;;;;5.20;4.70;;;7.70;94.10;;;;;;5113563;28;20446;-54
2021/04/25 04:25:49;;;;;;;7.97;5.07;;;7.70;94.10;;;;;;5112100;28;20219;-54
2021/04/25 04:28:15;;;;;;;7.67;4.83;;;7.80;94.10;;;;;;5114223;28;20188;-55
2021/04/25 04:30:40;;;;;;;5.07;4.53;;;7.90;94.00;;;;;;5113742;28;20453;-54
2021/04/25 04:33:06;;;;;;;7.93;5.87;;;7.90;94.10;;;;;;5113185;28;20488;-54
2021/04/25 04:35:31;;;;;;;7.90;4.90;;;7.90;94.00;;;;;;5112664;28;20286;-55
2021/04/25 04:37:57;;;;;;;5.90;5.07;;;7.70;94.00;;;;;;5112445;28;20172;-53
2021/04/25 04:40:24;;;;;;;6.67;4.97;;;7.70;94.10;;;;;;5112882;28;20172;-54
2021/04/25 04:42:49;;;;;;;5.30;4.25;;;7.80;94.10;;;;;;5107626;28;20450;-54
2021/04/25 04:45:16;;;;;;;8.40;4.90;;;7.80;94.00;;;;;;5112446;28;20182;-55
2021/04/25 04:47:44;;;;;;;5.88;4.00;;;7.90;93.90;;;;;;5108804;28;20198;-55
2021/04/25 04:50:10;;;;;;;8.10;5.28;;;8.30;94.00;;;;;;5113166;28;20664;-56
2021/04/25 04:52:35;;;;;;;8.05;5.15;;;7.90;93.70;;;;;;5114234;28;20715;-54
2021/04/25 04:55:02;;;;;;;6.73;5.03;;;7.90;94.00;;;;;;5112313;28;20229;-56
2021/04/25 04:57:27;;;;;;;5.13;4.63;;;7.70;94.70;;;;;;5129997;27;20516;-54
2021/04/25 04:59:53;;;;;;;9.30;4.80;;;7.90;95.30;;;;;;5112955;28;20833;-55
2021/04/25 05:02:19;;;;;;;6.37;5.07;;;7.90;95.30;;;;;;5111673;28;20231;-56
2021/04/25 05:04:44;;;;;;;6.33;4.03;;;7.90;95.00;;;;;;5109213;28;20206;-55
2021/04/25 05:07:11;;;;;;;8.27;5.13;;;7.70;94.70;;;;;;5112484;28;20187;-55
2021/04/25 05:09:37;;;;;;;7.60;5.05;;;7.80;94.50;;;;;;5102867;28;20195;-54
2021/04/25 05:12:03;;;;;;;5.97;4.90;;;8.00;94.40;;;;;;5103026;28;20605;-54
2021/04/25 05:14:29;;;;;;;9.48;4.82;;;8.00;94.30;;;;;;5108038;28;20540;-56
2021/04/25 05:16:54;;;;;;;9.17;4.97;;;8.30;94.00;;;;;;5106931;28;20263;-50
2021/04/25 05:19:20;;;;;;;5.67;5.17;;;7.90;93.70;;;;;;5105003;28;20657;-51
2021/04/25 05:21:45;;;;;;;6.30;5.67;;;8.10;93.80;;;;;;5102845;28;20239;-50
2021/04/25 05:24:11;;;;;;;6.17;4.53;;;8.30;94.00;;;;;;5097534;28;20171;-52
2021/04/25 05:26:37;;;;;;;6.07;4.87;;;8.20;93.80;;;;;;5098358;28;20530;-50
2021/04/25 05:29:04;;;;;;;7.67;5.63;;;8.20;93.30;;;;;;5094338;28;20257;-51
2021/04/25 05:31:29;;;;;;;5.43;4.85;;;8.70;93.10;;;;;;5096038;27;20222;-51
2021/04/25 05:33:55;;;;;;;7.30;5.23;;;8.80;93.00;;;;;;5093918;28;20200;-51
2021/04/25 05:36:21;;;;;;;6.50;4.77;;;8.90;92.00;;;;;;5102308;27;20460;-50
2021/04/25 05:38:47;;;;;;;6.00;4.40;;;9.00;91.90;;;;;;5100614;28;20445;-50
2021/04/25 05:41:12;;;;;;;6.70;5.13;;;9.20;92.30;;;;;;5103000;27;22386;-52
2021/04/25 05:43:38;;;;;;;5.07;3.87;;;9.60;91.30;;;;;;5103521;28;20541;-50
2021/04/25 05:46:04;;;;;;;9.83;5.00;;;11.00;90.30;;;;;;5105482;28;20262;-49
2021/04/25 05:48:29;;;;;;;8.77;5.10;;;11.20;84.70;;;;;;5099330;27;20571;-49
2021/04/25 05:50:55;;;;;;;12.37;6.87;;;11.30;83.40;;;;;;5101986;28;20261;-53
2021/04/25 05:53:21;;;;;;;10.70;7.13;;;11.40;82.60;;;;;;5104533;28;21008;-54
2021/04/25 05:55:46;;;;;;;6.33;5.40;;;11.20;82.60;;;;;;5097700;28;20213;-53
2021/04/25 05:58:12;;;;;;;8.03;5.83;;;11.00;82.00;;;;;;5101608;28;20178;-53
2021/04/25 06:00:39;;;;;;;8.30;6.37;;;10.70;82.00;;;;;;5098678;28;20187;-52
2021/04/25 06:03:06;;;;;;;7.40;6.20;;;10.60;83.80;;;;;;5100060;28;20461;-52
2021/04/25 06:05:32;;;;;;;7.22;6.45;;;10.60;84.20;;;;;;5098548;28;20201;-55
2021/04/25 06:07:57;;;;;;;8.70;6.45;;;10.80;84.50;;;;;;5097507;27;20183;-56
2021/04/25 06:10:23;;;;;;;6.87;5.97;;;10.00;83.00;;;;;;5100851;27;20558;-56
2021/04/25 06:12:51;;;;;;;7.33;6.63;;;10.50;84.60;;;;;;5102588;27;20220;-56
2021/04/25 06:15:18;;;;;;;8.13;6.25;;;10.50;84.40;;;;;;5098543;28;20472;-53
2021/04/25 06:17:44;;;;;;;6.35;5.55;;;10.60;83.50;;;;;;5103211;27;20656;-57
2021/04/25 06:20:12;;;;;;;9.05;6.38;;;10.80;82.90;;;;;;5105980;27;20184;-54
2021/04/25 06:22:38;;;;;;;7.50;5.53;;;10.70;82.60;;;;;;5108571;27;20202;-55
2021/04/25 06:25:04;;;;;;;8.00;5.85;;;11.00;82.20;;;;;;5114267;27;20194;-53
2021/04/25 06:27:30;;;;;;;7.93;6.47;;;10.80;81.70;;;;;;5099449;28;20184;-55
2021/04/25 06:29:55;;;;;;;7.60;6.47;;;10.80;82.40;;;;;;5110739;28;20196;-54
2021/04/25 06:32:21;;;;;;;8.37;6.00;;;10.60;83.40;;;;;;5109306;28;20695;-55
2021/04/25 06:34:47;;;;;;;8.00;6.70;;;10.90;83.00;;;;;;5108531;28;20201;-53
2021/04/25 06:37:13;;;;;;;9.10;7.47;;;11.00;82.90;;;;;;5104280;28;20399;-54
2021/04/25 06:39:38;;;;;;;10.10;6.03;;;11.10;83.10;;;;;;5110503;28;20227;-55
2021/04/25 06:42:05;;;;;;;7.03;6.27;;;11.60;81.70;;;;;;5106544;28;20460;-54
2021/04/25 06:44:30;;;;;;;13.10;7.50;;;12.00;79.60;;;;;;5110415;28;20176;-55
2021/04/25 06:46:56;;;;;;;8.07;7.20;;;12.20;79.00;;;;;;5109397;28;20424;-54
2021/04/25 06:49:22;;;;;;;7.90;6.47;;;12.50;78.50;;;;;;5109765;28;20179;-55
2021/04/25 06:51:49;;;;;;;8.38;6.80;;;12.70;75.80;;;;;;5107502;28;20299;-54
2021/04/25 06:54:15;;;;;;;10.48;6.68;;;13.40;73.70;;;;;;5101120;28;20199;-55
2021/04/25 06:56:42;;;;;;;9.05;7.45;;;14.00;70.80;;;;;;5105783;28;20186;-55
2021/04/25 06:59:08;;;;;;;8.75;7.85;;;15.10;67.40;;;;;;5108929;28;20311;-55
2021/04/25 07:01:34;;;;;;;10.23;7.23;;;15.70;64.20;;;;;;5106794;28;20427;-54
2021/04/25 07:03:59;;;;;;;8.37;7.07;;;16.30;63.30;;;;;;5107812;28;20437;-54
2021/04/25 07:06:25;;;;;;;7.50;6.80;;;17.20;59.30;;;;;;5101820;28;20681;-55
2021/04/25 07:08:51;;;;;;;7.60;6.90;;;18.30;56.50;;;;;;5108208;28;20326;-54
2021/04/25 07:11:16;;;;;;;7.82;6.80;;;19.10;54.90;;;;;;5108139;28;21047;-54
2021/04/25 07:13:42;;;;;;;7.60;6.90;;;19.90;52.40;;;;;;5105297;28;20187;-55
2021/04/25 07:16:08;;;;;;;8.17;7.37;;;20.80;50.70;;;;;;5107522;28;20248;-54
2021/04/25 07:18:33;;;;;;;7.67;6.87;;;21.60;49.40;;;;;;5102653;28;20180;-55
2021/04/25 07:20:59;;;;;;;7.67;6.97;;;22.80;47.20;;;;;;5104194;28;20545;-55
2021/04/25 07:23:25;;;;;;;9.20;8.23;;;23.40;44.50;;;;;;5107609;27;20235;-56
2021/04/25 07:25:55;;;;;;;8.60;7.80;;;22.90;44.50;;;;;;5106205;28;20707;-54
2021/04/25 07:28:22;;;;;;;10.13;8.57;;;23.80;43.30;;;;;;5099771;28;20608;-55
2021/04/25 07:30:48;;;;;;;9.50;8.50;;;22.60;43.60;;;;;;5108060;28;20459;-55
2021/04/25 07:33:15;;;;;;;9.00;8.13;;;23.80;42.60;;;;;;5108073;28;20460;-56
2021/04/25 07:35:42;;;;;;;10.37;9.37;;;24.10;41.30;;;;;;5090101;28;20321;-55
2021/04/25 07:38:08;;;;;;;9.13;7.87;;;22.90;41.10;;;;;;5109814;28;20537;-54
2021/04/25 07:40:34;;;;;;;8.83;7.73;;;21.50;45.50;;;;;;5107851;28;20460;-53
2021/04/25 07:43:00;;;;;;;10.57;8.70;;;22.40;43.50;;;;;;5107739;28;21060;-54
2021/04/25 07:45:26;;;;;;;10.70;9.33;;;23.50;42.50;;;;;;5104370;28;20577;-55
2021/04/25 07:47:52;;;;;;;9.77;8.77;;;23.60;41.50;;;;;;5105681;28;20275;-55
2021/04/25 07:50:17;;;;;;;10.17;8.97;;;22.60;43.00;;;;;;5104161;27;20843;-55
2021/04/25 07:52:43;;;;;;;11.80;9.50;;;23.60;41.60;;;;;;5113633;27;20262;-55
2021/04/25 07:55:10;;;;;;;10.07;9.17;;;22.60;43.30;;;;;;5107773;28;20450;-53
2021/04/25 07:57:37;;;;;;;10.13;9.13;;;22.90;43.00;;;;;;5108968;28;21020;-55
2021/04/25 08:00:08;;;;;;;10.20;9.20;;;23.00;42.50;;;;;;5106147;28;20523;-54
2021/04/25 08:02:34;;;;;;;10.90;9.90;;;24.30;41.30;;;;;;5099974;28;20544;-55
2021/04/25 08:05:00;;;;;;;11.00;10.00;;;23.80;40.50;;;;;;5107605;28;20437;-55
2021/04/25 08:07:25;;;;;;;11.37;10.17;;;22.90;40.70;;;;;;5104789;28;20959;-52
2021/04/25 08:09:51;;;;;;;11.53;10.40;;;24.00;40.60;;;;;;5100494;27;20565;-52
2021/04/25 08:12:17;;;;;;;12.47;10.37;;;24.40;40.10;;;;;;5099623;28;20215;-54
2021/04/25 08:14:43;;;;;;;12.23;11.10;;;24.90;39.30;;;;;;5096915;28;20320;-53
2021/04/25 08:17:09;;;;;;;13.37;11.63;;;25.10;38.60;;;;;;5100584;28;20192;-53
2021/04/25 08:19:34;;;;;;;12.33;11.13;;;25.00;38.10;;;;;;5105140;27;20207;-53
2021/04/25 08:22:00;;;;;;;11.47;10.37;;;25.00;38.30;;;;;;5104892;27;20454;-51
2021/04/25 08:24:26;;;;;;;11.50;10.27;;;23.80;38.70;;;;;;5098696;27;20211;-52
2021/04/25 08:26:52;;;;;;;11.67;10.57;;;24.10;40.20;;;;;;5103652;27;20282;-52
2021/04/25 08:29:18;;;;;;;12.40;10.50;;;24.60;38.80;;;;;;5114035;27;20681;-54
2021/04/25 08:31:44;;;;;;;10.30;9.40;;;23.50;38.90;;;;;;5103008;27;20549;-53
2021/04/25 08:34:10;;;;;;;11.57;9.93;;;24.20;39.60;;;;;;5104920;27;21112;-54
2021/04/25 08:36:35;;;;;;;11.47;10.30;;;23.20;39.50;;;;;;5099745;27;20466;-52
2021/04/25 08:39:02;;;;;;;12.23;10.40;;;23.40;40.50;;;;;;5104707;27;20197;-55
2021/04/25 08:41:29;;;;;;;10.90;9.90;;;23.90;39.80;;;;;;5119553;27;20215;-56
2021/04/25 08:43:55;;;;;;;13.37;10.70;;;24.20;39.40;;;;;;5103640;27;20950;-55
2021/04/25 08:46:24;;;;;;;10.43;9.40;;;23.80;40.60;;;;;;5104062;27;20444;-52
2021/04/25 08:48:50;;;;;;;10.53;9.43;;;25.00;39.60;;;;;;5100394;27;20495;-54
2021/04/25 08:51:17;;;;;;;12.33;11.00;;;25.00;38.20;;;;;;5104048;27;20472;-52
2021/04/25 08:53:45;;;;;;;11.00;10.00;;;25.10;38.10;;;;;;5103451;27;20581;-55
2021/04/25 08:56:11;;;;;;;11.73;10.63;;;25.80;36.90;;;;;;5102101;27;20432;-57
2021/04/25 08:58:37;;;;;;;12.17;10.63;;;25.70;36.60;;;;;;5100224;28;20676;-55
2021/04/25 09:01:04;;;;;;;10.83;9.83;;;25.50;37.00;;;;;;5102042;27;20568;-60
2021/04/25 09:03:30;;;;;;;11.30;10.30;;;24.60;38.10;;;;;;5103423;27;20222;-55
2021/04/25 09:05:59;;;;;;;10.73;9.63;;;25.20;37.40;;;;;;5107453;27;20483;-58
2021/04/25 09:08:46;;;;;;;11.67;10.53;;;25.30;37.00;;;;;;5105531;27;20187;-55
2021/04/25 09:11:33;;;;;;;11.00;9.97;;;24.40;37.20;;;;;;5103198;27;20452;-55
2021/04/25 09:14:24;;;;;;;11.90;10.20;;;24.50;37.90;;;;;;5101786;27;20889;-54
2021/04/25 09:16:58;;;;;;;10.50;9.50;;;24.90;37.20;;;;;;5102672;27;20433;-52
2021/04/25 09:19:26;;;;;;;10.23;9.17;;;24.90;37.00;;;;;;5105701;27;20455;-56
2021/04/25 09:21:54;;;;;;;10.70;9.60;;;24.10;37.30;;;;;;5100965;27;21042;-57
2021/04/25 09:24:21;;;;;;;10.93;9.83;;;24.20;36.60;;;;;;5112516;27;20500;-55
2021/04/25 09:26:47;;;;;;;10.87;9.17;;;21.80;38.60;;;;;;5104971;28;20788;-55
2021/04/25 09:29:13;;;;;;;9.90;8.90;;;22.10;40.70;;;;;;5104140;27;20457;-56
2021/04/25 09:31:40;;;;;;;9.00;8.10;;;22.30;39.60;;;;;;5097206;27;20482;-55
2021/04/25 09:34:05;;;;;;;10.50;9.40;;;22.30;40.50;;;;;;5099076;28;20203;-55
2021/04/25 09:36:32;;;;;;;9.30;8.40;;;22.20;40.80;;;;;;5098791;28;20441;-56
2021/04/25 09:39:16;;;;;;;10.20;8.00;;;21.70;41.10;;;;;;5102670;27;20184;-55
2021/04/25 09:41:43;;;;;;;9.40;8.40;;;21.50;41.30;;;;;;5102559;27;20465;-55
2021/04/25 09:44:31;;;;;;;8.73;7.90;;;21.70;40.50;;;;;;5104678;27;20974;-53
2021/04/25 09:47:00;;;;;;;10.13;8.60;;;21.70;40.80;;;;;;5100259;28;20446;-54
2021/04/25 09:49:39;;;;;;;9.90;9.00;;;21.10;41.50;;;;;;5098893;28;20441;-53
2021/04/25 09:52:11;;;;;;;9.97;8.10;;;22.10;41.10;;;;;;5104431;28;20452;-53
2021/04/25 09:54:37;;;;;;;8.60;7.67;;;21.70;40.40;;;;;;5102428;28;20510;-56
2021/04/25 09:57:02;;;;;;;8.37;7.50;;;22.70;39.60;;;;;;5098895;28;20805;-53
2021/04/25 09:59:28;;;;;;;10.03;9.03;;;22.80;38.30;;;;;;5096563;28;20186;-55
2021/04/25 10:02:08;;;;;;;9.00;8.20;;;22.10;39.60;;;;;;5099672;28;20909;-53
2021/04/25 10:04:36;;;;;;;9.03;8.13;;;21.50;40.50;;;;;;5104309;28;20665;-55
2021/04/25 10:07:05;;;;;;;8.83;7.53;;;21.40;40.30;;;;;;5102469;28;20437;-55
2021/04/25 10:09:31;;;;;;;8.13;7.25;;;21.00;41.00;;;;;;5101610;28;20445;-52
2021/04/25 10:12:00;;;;;;;7.50;6.80;;;21.10;40.50;;;;;;5105167;28;20640;-56
2021/04/25 10:14:27;;;;;;;9.80;8.10;;;21.10;40.10;;;;;;5100454;28;21054;-57
2021/04/25 10:16:56;;;;;;;8.50;7.70;;;20.70;41.00;;;;;;5096644;28;20422;-55
2021/04/25 10:19:22;;;;;;;9.38;8.40;;;20.40;42.20;;;;;;5104142;28;20229;-53
2021/04/25 10:21:48;;;;;;;8.70;7.90;;;20.20;42.70;;;;;;5099910;28;20218;-52
2021/04/25 10:24:17;;;;;;;9.00;8.20;;;20.20;42.70;;;;;;5119297;28;20191;-54
2021/04/25 10:26:52;;;;;;;8.60;7.80;;;19.70;42.50;;;;;;5095748;28;20188;-52
2021/04/25 10:29:28;;;;;;;8.88;7.85;;;19.40;43.30;;;;;;5102680;28;20192;-53
2021/04/25 10:31:57;;;;;;;8.02;7.32;;;19.30;44.30;;;;;;5101682;28;20746;-57
2021/04/25 10:34:22;;;;;;;8.88;7.97;;;19.30;43.60;;;;;;5110350;27;20199;-57
2021/04/25 10:36:50;;;;;;;8.20;7.20;;;19.40;43.90;;;;;;5098286;28;20704;-57
2021/04/25 10:39:35;;;;;;;8.90;7.30;;;19.60;43.10;;;;;;5115118;27;20172;-57
2021/04/25 10:42:16;;;;;;;8.52;7.47;;;19.60;43.00;;;;;;5102028;28;20238;-56
2021/04/25 10:45:16;;;;;;;10.43;7.95;;;19.50;43.50;;;;;;5100417;28;20184;-58
2021/04/25 10:47:43;;;;;;;9.95;8.48;;;19.60;43.90;;;;;;5101016;28;20287;-58
2021/04/25 10:50:09;;;;;;;7.70;6.95;;;19.80;43.50;;;;;;5097088;28;21105;-55
2021/04/25 10:52:36;;;;;;;9.90;9.00;;;20.20;42.90;;;;;;5098134;28;20307;-58
2021/04/25 10:55:15;;;;;;;6.85;6.25;;;19.80;42.90;;;;;;5108713;28;20223;-58
2021/04/25 10:57:53;;;;;;;8.07;7.25;;;19.80;43.70;;;;;;5104132;28;20183;-57
2021/04/25 11:00:34;;;;;;;7.57;6.93;;;20.00;43.00;;;;;;5106110;28;20268;-57
2021/04/25 11:03:18;;;;;;;6.95;6.20;;;20.60;42.10;;;;;;5098695;28;20207;-58
2021/04/25 11:05:45;;;;;;;7.50;5.70;;;20.90;40.30;;;;;;5104341;28;20188;-56
2021/04/25 11:08:15;;;;;;;6.40;5.80;;;20.90;39.70;;;;;;5104266;28;20226;-57
2021/04/25 11:11:10;;;;;;;9.48;6.68;;;20.90;40.40;;;;;;5102783;27;20269;-53
2021/04/25 11:13:49;;;;;;;8.43;6.20;;;19.80;41.30;;;;;;5108201;27;20192;-53
2021/04/25 11:16:18;;;;;;;7.40;6.70;;;19.80;41.90;;;;;;5100872;27;20194;-54
2021/04/25 11:18:56;;;;;;;11.13;6.45;;;19.50;41.80;;;;;;5101881;27;20207;-54
2021/04/25 11:21:28;;;;;;;7.40;6.70;;;19.40;42.70;;;;;;5106897;27;20227;-53
2021/04/25 11:23:54;;;;;;;7.70;6.53;;;19.50;42.70;;;;;;5102400;27;20612;-53
2021/04/25 11:29:09;;;;;;;6.57;5.90;;;18.60;44.10;;;;;;5106409;28;20180;-53
2021/04/25 11:34:38;;;;;;;6.30;5.55;;;19.60;42.80;;;;;;5109804;27;20203;-53
2021/04/25 11:37:24;;;;;;;6.68;5.10;;;19.70;42.70;;;;;;5077843;28;20191;-53
2021/04/25 11:39:55;;;;;;;5.32;4.68;;;20.10;39.50;;;;;;5101783;28;20252;-53
2021/04/25 11:42:46;;;;;;;5.73;4.80;;;20.60;39.10;;;;;;5109188;27;20206;-53
2021/04/25 11:45:18;;;;;;;6.03;5.43;;;20.90;39.40;;;;;;5122323;27;20437;-52
2021/04/25 11:47:46;;;;;;;5.55;5.05;;;20.80;39.10;;;;;;5101329;28;20549;-53
2021/04/25 11:50:12;;;;;;;6.25;5.65;;;20.40;39.10;;;;;;5101675;28;20194;-53
2021/04/25 11:52:38;;;;;;;5.35;4.85;;;20.30;39.10;;;;;;5101031;28;20207;-53
2021/04/25 11:55:08;;;;;;;6.43;5.30;;;20.10;39.60;;;;;;5104684;28;20199;-53
2021/04/25 11:57:42;;;;;;;4.90;4.40;;;20.20;38.80;;;;;;5106009;28;20290;-53
2021/04/25 12:00:11;;;;;;;5.40;4.00;;;20.40;38.50;;;;;;5105270;28;20277;-53
2021/04/25 12:02:58;;;;;;;6.47;4.63;;;20.30;37.70;;;;;;5108049;28;20227;-53
2021/04/25 12:05:40;;;;;;;4.95;4.30;;;20.10;37.20;;;;;;5122948;27;20283;-52
2021/04/25 12:08:08;;;;;;;5.70;5.07;;;19.90;37.40;;;;;;5107417;28;20175;-53
2021/04/25 12:10:50;;;;;;;6.43;4.50;;;19.70;37.80;;;;;;5105844;28;20607;-53
2021/04/25 12:13:19;;;;;;;5.05;4.50;;;19.10;38.00;;;;;;5103270;28;20207;-54
2021/04/25 12:15:47;;;;;;;4.75;4.35;;;19.10;38.90;;;;;;5099731;28;20201;-53
2021/04/25 12:18:14;;;;;;;4.60;4.20;;;18.80;39.60;;;;;;5104968;28;20176;-53
2021/04/25 12:20:41;;;;;;;9.05;7.90;;;18.90;40.10;;;;;;5107588;28;20183;-53
2021/04/25 12:23:10;;;;;;;4.95;4.03;;;18.90;37.90;;;;;;5106967;28;20211;-53
2021/04/25 12:25:36;;;;;;;5.18;4.00;;;19.00;38.30;;;;;;5106002;28;20232;-54
2021/04/25 12:28:01;;;;;;;4.37;3.97;;;19.00;37.10;;;;;;5101625;28;20179;-53
2021/04/25 12:30:29;;;;;;;5.10;4.07;;;19.10;38.40;;;;;;5107010;28;20190;-54
2021/04/25 12:33:17;;;;;;;4.60;4.00;;;19.10;37.90;;;;;;5107035;28;20219;-54
2021/04/25 12:35:51;;;;;;;5.10;4.50;;;18.90;38.30;;;;;;5097416;28;20219;-53
2021/04/25 12:38:31;;;;;;;5.20;4.05;;;18.80;37.40;;;;;;5110053;28;20347;-53
2021/04/25 12:40:58;;;;;;;4.22;3.45;;;18.80;37.50;;;;;;5103380;28;20217;-53
2021/04/25 12:43:26;;;;;;;3.72;3.42;;;18.70;36.20;;;;;;5101882;28;20244;-53
2021/04/25 12:45:53;;;;;;;4.70;4.20;;;18.70;36.50;;;;;;5100473;28;20566;-53
2021/04/25 12:48:21;;;;;;;4.60;3.20;;;18.60;36.50;;;;;;5105588;28;20180;-52
2021/04/25 12:51:01;;;;;;;4.28;3.75;;;18.50;36.10;;;;;;5107223;28;20654;-53
2021/04/25 12:53:27;;;;;;;4.10;3.65;;;18.50;35.50;;;;;;5107923;28;20214;-53
2021/04/25 12:55:53;;;;;;;4.63;4.00;;;18.60;36.30;;;;;;5107074;28;20708;-52